sensor_id;sensor_type;location;lat;lon;timestamp;pressure;altitude;pressure_sealevel;temperature;humidity
7480;BME280;3781;42.272;22.658;2023-07-20T00:02:04;94092.97;;;20.05;100.00
7480;BME280;3781;42.272;22.658;2023-07-20T00:04:36;94072.06;;;19.90;100.00
7480;BME280;3781;42.272;22.658;2023-07-20T00:07:03;94175.47;;;20.71;100.00
7480;BME280;3781;42.272;22.658;2023-07-20T00:09:35;94147.03;;;20.79;100.00
7480;BME280;3781;42.272;22.658;2023-07-20T00:12:03;94187.19;;;21.08;100.00
7480;BME280;3781;42.272;22.658;2023-07-20T00:14:36;94214.03;;;20.91;100.00
7480;BME280;3781;42.272;22.658;2023-07-20T00:17:03;94184.03;;;20.34;100.00
7480;BME280;3781;42.272;22.658;2023-07-20T00:19:37;94202.28;;;20.15;100.00
7480;BME280;3781;42.272;22.658;2023-07-20T00:22:04;94156.38;;;19.64;100.00
7480;BME280;3781;42.272;22.658;2023-07-20T00:24:34;94183.97;;;19.62;100.00
7480;BME280;3781;42.272;22.658;2023-07-20T00:27:04;94190.81;;;19.56;100.00
7480;BME280;3781;42.272;22.658;2023-07-20T00:29:31;94118.97;;;19.21;100.00
7480;BME280;3781;42.272;22.658;2023-07-20T00:32:02;94204.06;;;19.89;100.00
7480;BME280;3781;42.272;22.658;2023-07-20T00:34:30;94138.34;;;19.54;100.00
7480;BME280;3781;42.272;22.658;2023-07-20T00:37:00;94161.28;;;19.93;100.00
7480;BME280;3781;42.272;22.658;2023-07-20T00:39:29;94193.81;;;20.26;100.00
7480;BME280;3781;42.272;22.658;2023-07-20T00:41:56;94201.91;;;20.38;100.00
7480;BME280;3781;42.272;22.658;2023-07-20T00:44:23;94167.44;;;20.26;100.00
7480;BME280;3781;42.272;22.658;2023-07-20T00:46:50;94176.94;;;20.34;100.00
7480;BME280;3781;42.272;22.658;2023-07-20T00:49:18;94139.81;;;20.09;100.00
7480;BME280;3781;42.272;22.658;2023-07-20T00:51:48;94185.06;;;20.52;100.00
7480;BME280;3781;42.272;22.658;2023-07-20T00:54:20;94153.00;;;20.55;100.00
7480;BME280;3781;42.272;22.658;2023-07-20T00:56:52;94171.41;;;20.81;100.00
7480;BME280;3781;42.272;22.658;2023-07-20T00:59:20;94122.56;;;20.53;100.00
7480;BME280;3781;42.272;22.658;2023-07-20T01:01:57;94149.13;;;20.45;100.00
7480;BME280;3781;42.272;22.658;2023-07-20T01:04:39;94053.84;;;19.63;100.00
7480;BME280;3781;42.272;22.658;2023-07-20T01:07:10;94015.72;;;19.32;100.00
7480;BME280;3781;42.272;22.658;2023-07-20T01:09:45;94175.50;;;20.12;100.00
7480;BME280;3781;42.272;22.658;2023-07-20T01:12:25;94165.75;;;19.93;100.00
7480;BME280;3781;42.272;22.658;2023-07-20T01:14:53;94165.72;;;19.67;100.00
7480;BME280;3781;42.272;22.658;2023-07-20T01:17:20;94178.44;;;19.43;100.00
7480;BME280;3781;42.272;22.658;2023-07-20T01:19:53;94086.34;;;18.62;100.00
7480;BME280;3781;42.272;22.658;2023-07-20T01:22:39;94122.84;;;18.78;100.00
7480;BME280;3781;42.272;22.658;2023-07-20T01:25:24;94160.19;;;19.01;100.00
7480;BME280;3781;42.272;22.658;2023-07-20T01:28:12;94167.50;;;19.06;100.00
7480;BME280;3781;42.272;22.658;2023-07-20T01:30:56;94137.34;;;19.08;100.00
7480;BME280;3781;42.272;22.658;2023-07-20T01:33:28;94082.41;;;18.79;100.00
7480;BME280;3781;42.272;22.658;2023-07-20T01:36:00;94133.16;;;19.20;100.00
7480;BME280;3781;42.272;22.658;2023-07-20T01:38:34;94170.06;;;19.33;100.00
7480;BME280;3781;42.272;22.658;2023-07-20T01:41:01;94149.72;;;19.14;100.00
7480;BME280;3781;42.272;22.658;2023-07-20T01:43:31;94146.09;;;19.15;100.00
7480;BME280;3781;42.272;22.658;2023-07-20T01:45:58;94166.59;;;19.26;100.00
7480;BME280;3781;42.272;22.658;2023-07-20T01:48:33;93896.59;;;17.57;100.00
7480;BME280;3781;42.272;22.658;2023-07-20T01:51:00;94007.72;;;18.33;100.00
7480;BME280;3781;42.272;22.658;2023-07-20T01:53:30;94010.50;;;18.25;100.00
7480;BME280;3781;42.272;22.658;2023-07-20T01:56:00;94055.88;;;18.40;100.00
7480;BME280;3781;42.272;22.658;2023-07-20T01:58:27;94087.56;;;18.59;100.00
7480;BME280;3781;42.272;22.658;2023-07-20T02:00:57;93839.81;;;17.22;100.00
7480;BME280;3781;42.272;22.658;2023-07-20T02:03:29;93965.09;;;18.44;100.00
7480;BME280;3781;42.272;22.658;2023-07-20T02:05:57;94044.88;;;19.24;100.00
7480;BME280;3781;42.272;22.658;2023-07-20T02:08:27;94030.06;;;19.23;100.00
7480;BME280;3781;42.272;22.658;2023-07-20T02:10:54;94162.56;;;20.23;100.00
7480;BME280;3781;42.272;22.658;2023-07-20T02:13:24;94082.00;;;19.82;100.00
7480;BME280;3781;42.272;22.658;2023-07-20T02:15:51;93960.41;;;19.13;100.00
7480;BME280;3781;42.272;22.658;2023-07-20T02:18:18;94043.09;;;19.71;100.00
7480;BME280;3781;42.272;22.658;2023-07-20T02:20:49;94109.78;;;20.04;100.00
7480;BME280;3781;42.272;22.658;2023-07-20T02:23:20;94155.22;;;19.93;100.00
7480;BME280;3781;42.272;22.658;2023-07-20T02:25:49;94144.19;;;19.43;100.00
7480;BME280;3781;42.272;22.658;2023-07-20T02:28:22;94061.63;;;18.50;100.00
7480;BME280;3781;42.272;22.658;2023-07-20T02:30:55;94109.84;;;18.36;100.00
7480;BME280;3781;42.272;22.658;2023-07-20T02:33:22;93977.25;;;17.21;100.00
7480;BME280;3781;42.272;22.658;2023-07-20T02:35:48;94131.72;;;18.08;100.00
7480;BME280;3781;42.272;22.658;2023-07-20T02:38:20;94099.59;;;17.85;100.00
7480;BME280;3781;42.272;22.658;2023-07-20T02:40:47;93997.09;;;17.51;100.00
7480;BME280;3781;42.272;22.658;2023-07-20T02:43:14;94120.09;;;18.52;100.00
7480;BME280;3781;42.272;22.658;2023-07-20T02:45:44;94144.28;;;18.75;100.00
7480;BME280;3781;42.272;22.658;2023-07-20T02:48:11;94133.81;;;18.88;100.00
7480;BME280;3781;42.272;22.658;2023-07-20T02:50:37;94067.13;;;18.55;100.00
7480;BME280;3781;42.272;22.658;2023-07-20T02:53:07;94139.81;;;19.16;100.00
7480;BME280;3781;42.272;22.658;2023-07-20T02:55:35;94068.28;;;18.93;100.00
7480;BME280;3781;42.272;22.658;2023-07-20T02:58:05;94118.25;;;19.40;100.00
7480;BME280;3781;42.272;22.658;2023-07-20T03:00:35;94119.44;;;19.38;100.00
7480;BME280;3781;42.272;22.658;2023-07-20T03:03:02;94127.56;;;19.36;100.00
7480;BME280;3781;42.272;22.658;2023-07-20T03:05:29;93956.97;;;17.91;100.00
7480;BME280;3781;42.272;22.658;2023-07-20T03:08:04;94127.06;;;18.66;100.00
7480;BME280;3781;42.272;22.658;2023-07-20T03:10:31;94125.34;;;18.52;100.00
7480;BME280;3781;42.272;22.658;2023-07-20T03:12:59;94133.50;;;18.36;100.00
7480;BME280;3781;42.272;22.658;2023-07-20T03:15:26;94132.13;;;18.12;100.00
7480;BME280;3781;42.272;22.658;2023-07-20T03:17:56;94139.44;;;18.17;100.00
7480;BME280;3781;42.272;22.658;2023-07-20T03:20:27;94102.84;;;17.87;100.00
7480;BME280;3781;42.272;22.658;2023-07-20T03:22:56;94061.25;;;17.63;100.00
7480;BME280;3781;42.272;22.658;2023-07-20T03:25:31;94139.44;;;18.17;100.00
7480;BME280;3781;42.272;22.658;2023-07-20T03:28:00;94103.66;;;17.88;100.00
7480;BME280;3781;42.272;22.658;2023-07-20T03:30:27;94070.25;;;17.54;100.00
7480;BME280;3781;42.272;22.658;2023-07-20T03:32:56;94136.66;;;17.97;100.00
7480;BME280;3781;42.272;22.658;2023-07-20T03:35:26;94114.50;;;17.78;100.00
7480;BME280;3781;42.272;22.658;2023-07-20T03:37:52;93933.13;;;16.46;100.00
7480;BME280;3781;42.272;22.658;2023-07-20T03:40:19;94026.22;;;17.14;100.00
7480;BME280;3781;42.272;22.658;2023-07-20T03:42:49;94129.50;;;17.84;100.00
7480;BME280;3781;42.272;22.658;2023-07-20T03:45:20;93968.25;;;16.88;100.00
7480;BME280;3781;42.272;22.658;2023-07-20T03:47:49;94088.59;;;17.75;100.00
7480;BME280;3781;42.272;22.658;2023-07-20T03:50:19;94134.69;;;18.27;100.00
7480;BME280;3781;42.272;22.658;2023-07-20T03:52:48;94116.50;;;18.32;100.00
7480;BME280;3781;42.272;22.658;2023-07-20T03:55:15;94138.78;;;18.63;100.00
7480;BME280;3781;42.272;22.658;2023-07-20T03:57:42;94136.63;;;18.80;100.00
7480;BME280;3781;42.272;22.658;2023-07-20T04:00:15;94123.16;;;18.96;100.00
7480;BME280;3781;42.272;22.658;2023-07-20T04:02:43;94108.03;;;19.11;100.00
7480;BME280;3781;42.272;22.658;2023-07-20T04:05:13;94105.19;;;19.19;100.00
7480;BME280;3781;42.272;22.658;2023-07-20T04:07:43;94117.44;;;19.40;100.00
7480;BME280;3781;42.272;22.658;2023-07-20T04:10:10;94116.81;;;19.44;100.00
7480;BME280;3781;42.272;22.658;2023-07-20T04:12:37;94131.28;;;19.75;100.00
7480;BME280;3781;42.272;22.658;2023-07-20T04:15:08;94136.56;;;19.88;100.00
7480;BME280;3781;42.272;22.658;2023-07-20T04:17:34;94094.78;;;19.72;100.00
7480;BME280;3781;42.272;22.658;2023-07-20T04:20:03;94083.03;;;19.68;100.00
7480;BME280;3781;42.272;22.658;2023-07-20T04:22:33;94082.44;;;19.79;100.00
7480;BME280;3781;42.272;22.658;2023-07-20T04:25:00;94112.03;;;20.07;100.00
7480;BME280;3781;42.272;22.658;2023-07-20T04:27:27;94139.84;;;20.36;100.00
7480;BME280;3781;42.272;22.658;2023-07-20T04:29:54;94129.66;;;20.52;100.00
7480;BME280;3781;42.272;22.658;2023-07-20T04:32:20;94125.97;;;20.66;100.00
7480;BME280;3781;42.272;22.658;2023-07-20T04:34:47;94132.44;;;20.83;100.00
7480;BME280;3781;42.272;22.658;2023-07-20T04:37:15;94142.13;;;21.02;100.00
7480;BME280;3781;42.272;22.658;2023-07-20T04:39:42;94112.28;;;20.95;100.00
7480;BME280;3781;42.272;22.658;2023-07-20T04:42:10;94142.06;;;21.22;100.00
7480;BME280;3781;42.272;22.658;2023-07-20T04:44:40;94146.63;;;21.46;100.00
7480;BME280;3781;42.272;22.658;2023-07-20T04:47:07;94140.81;;;21.62;100.00
7480;BME280;3781;42.272;22.658;2023-07-20T04:49:37;94116.84;;;21.64;100.00
7480;BME280;3781;42.272;22.658;2023-07-20T04:52:05;94125.53;;;22.02;100.00
7480;BME280;3781;42.272;22.658;2023-07-20T04:54:33;94133.16;;;22.41;100.00
7480;BME280;3781;42.272;22.658;2023-07-20T04:57:00;94113.09;;;22.52;100.00
7480;BME280;3781;42.272;22.658;2023-07-20T04:59:27;94096.34;;;22.58;100.00
7480;BME280;3781;42.272;22.658;2023-07-20T05:01:53;94143.53;;;23.04;100.00
7480;BME280;3781;42.272;22.658;2023-07-20T05:04:20;94148.97;;;23.27;100.00
7480;BME280;3781;42.272;22.658;2023-07-20T05:06:47;94071.66;;;22.82;100.00
7480;BME280;3781;42.272;22.658;2023-07-20T05:09:14;94149.63;;;23.41;100.00
7480;BME280;3781;42.272;22.658;2023-07-20T05:11:42;94154.66;;;23.49;100.00
7480;BME280;3781;42.272;22.658;2023-07-20T05:14:10;94154.16;;;23.70;100.00
7480;BME280;3781;42.272;22.658;2023-07-20T05:16:37;94113.91;;;23.61;100.00
7480;BME280;3781;42.272;22.658;2023-07-20T05:19:03;94149.81;;;24.17;100.00
7480;BME280;3781;42.272;22.658;2023-07-20T05:21:30;94128.84;;;24.27;95.64
7480;BME280;3781;42.272;22.658;2023-07-20T05:23:57;94169.28;;;24.75;92.79
7480;BME280;3781;42.272;22.658;2023-07-20T05:26:24;94171.13;;;24.86;94.27
7480;BME280;3781;42.272;22.658;2023-07-20T05:28:52;94170.69;;;24.89;94.08
7480;BME280;3781;42.272;22.658;2023-07-20T05:31:19;94168.38;;;24.81;91.94
7480;BME280;3781;42.272;22.658;2023-07-20T05:33:45;94163.53;;;24.78;92.59
7480;BME280;3781;42.272;22.658;2023-07-20T05:36:12;94159.56;;;24.69;87.64
7480;BME280;3781;42.272;22.658;2023-07-20T05:38:39;94133.47;;;24.43;92.23
7480;BME280;3781;42.272;22.658;2023-07-20T05:41:05;94154.22;;;24.34;91.86
7480;BME280;3781;42.272;22.658;2023-07-20T05:43:35;94157.47;;;24.36;96.26
7480;BME280;3781;42.272;22.658;2023-07-20T05:46:04;94156.06;;;24.34;94.66
7480;BME280;3781;42.272;22.658;2023-07-20T05:48:30;94160.69;;;24.27;94.08
7480;BME280;3781;42.272;22.658;2023-07-20T05:50:58;94160.59;;;24.33;95.27
7480;BME280;3781;42.272;22.658;2023-07-20T05:53:24;94161.28;;;24.40;98.54
7480;BME280;3781;42.272;22.658;2023-07-20T05:55:54;94137.84;;;24.26;98.28
7480;BME280;3781;42.272;22.658;2023-07-20T05:58:23;94160.59;;;24.45;97.95
7480;BME280;3781;42.272;22.658;2023-07-20T06:00:50;94120.38;;;24.07;90.14
7480;BME280;3781;42.272;22.658;2023-07-20T06:03:20;94155.84;;;24.24;89.37
7480;BME280;3781;42.272;22.658;2023-07-20T06:05:47;94143.63;;;24.23;89.60
7480;BME280;3781;42.272;22.658;2023-07-20T06:08:14;94141.44;;;24.31;90.75
7480;BME280;3781;42.272;22.658;2023-07-20T06:14:13;94124.47;;;24.44;97.94
7480;BME280;3781;42.272;22.658;2023-07-20T06:16:40;94107.16;;;24.53;98.68
7480;BME280;3781;42.272;22.658;2023-07-20T06:19:08;94143.19;;;24.95;94.57
7480;BME280;3781;42.272;22.658;2023-07-20T06:21:36;94128.38;;;25.11;89.55
7480;BME280;3781;42.272;22.658;2023-07-20T06:24:03;94110.34;;;25.01;92.54
7480;BME280;3781;42.272;22.658;2023-07-20T06:26:30;94092.25;;;24.98;94.81
7480;BME280;3781;42.272;22.658;2023-07-20T06:29:03;94132.47;;;25.41;90.73
7480;BME280;3781;42.272;22.658;2023-07-20T06:31:30;94109.56;;;25.40;84.95
7480;BME280;3781;42.272;22.658;2023-07-20T06:33:56;94145.66;;;25.76;87.90
7480;BME280;3781;42.272;22.658;2023-07-20T06:36:25;94146.63;;;25.87;79.87
7480;BME280;3781;42.272;22.658;2023-07-20T06:38:52;94105.72;;;25.60;82.49
7480;BME280;3781;42.272;22.658;2023-07-20T06:41:19;94153.75;;;25.98;81.71
7480;BME280;3781;42.272;22.658;2023-07-20T06:43:46;94170.78;;;26.25;81.12
7480;BME280;3781;42.272;22.658;2023-07-20T06:46:12;94129.88;;;26.31;79.61
7480;BME280;3781;42.272;22.658;2023-07-20T06:48:39;94159.09;;;26.59;84.45
7480;BME280;3781;42.272;22.658;2023-07-20T06:51:06;94179.53;;;26.70;76.59
7480;BME280;3781;42.272;22.658;2023-07-20T06:53:34;94167.06;;;26.43;73.71
7480;BME280;3781;42.272;22.658;2023-07-20T06:56:01;94175.78;;;26.38;76.07
7480;BME280;3781;42.272;22.658;2023-07-20T06:58:28;94177.41;;;26.39;80.58
7480;BME280;3781;42.272;22.658;2023-07-20T07:00:55;94174.69;;;26.51;74.43
7480;BME280;3781;42.272;22.658;2023-07-20T07:03:21;94149.34;;;26.48;74.19
7480;BME280;3781;42.272;22.658;2023-07-20T07:05:48;94174.66;;;26.84;79.03
7480;BME280;3781;42.272;22.658;2023-07-20T07:08:15;94156.34;;;26.87;72.54
7480;BME280;3781;42.272;22.658;2023-07-20T07:10:43;94161.63;;;27.21;78.45
7480;BME280;3781;42.272;22.658;2023-07-20T07:13:10;94179.97;;;27.55;76.81
7480;BME280;3781;42.272;22.658;2023-07-20T07:15:36;94182.06;;;27.75;78.36
7480;BME280;3781;42.272;22.658;2023-07-20T07:18:03;94195.06;;;27.93;77.26
7480;BME280;3781;42.272;22.658;2023-07-20T07:20:30;94192.00;;;28.01;72.84
7480;BME280;3781;42.272;22.658;2023-07-20T07:22:57;94168.56;;;28.08;72.05
7480;BME280;3781;42.272;22.658;2023-07-20T07:25:23;94178.41;;;28.29;70.25
7480;BME280;3781;42.272;22.658;2023-07-20T07:27:53;94200.75;;;28.50;68.96
7480;BME280;3781;42.272;22.658;2023-07-20T07:30:21;94154.31;;;28.24;64.97
7480;BME280;3781;42.272;22.658;2023-07-20T07:32:47;94181.50;;;28.48;68.23
7480;BME280;3781;42.272;22.658;2023-07-20T07:35:14;94203.78;;;28.59;67.84
7480;BME280;3781;42.272;22.658;2023-07-20T07:37:41;94196.09;;;28.41;65.34
7480;BME280;3781;42.272;22.658;2023-07-20T07:40:08;94183.22;;;28.32;62.00
7480;BME280;3781;42.272;22.658;2023-07-20T07:42:35;94181.41;;;28.38;65.29
7480;BME280;3781;42.272;22.658;2023-07-20T07:45:05;94181.78;;;28.52;66.97
7480;BME280;3781;42.272;22.658;2023-07-20T07:47:31;94174.00;;;28.77;64.23
7480;BME280;3781;42.272;22.658;2023-07-20T07:49:58;94138.72;;;28.75;62.80
7480;BME280;3781;42.272;22.658;2023-07-20T07:52:25;94127.84;;;28.91;66.24
7480;BME280;3781;42.272;22.658;2023-07-20T07:54:51;94131.38;;;28.97;60.74
7480;BME280;3781;42.272;22.658;2023-07-20T07:57:18;94148.66;;;29.26;60.41
7480;BME280;3781;42.272;22.658;2023-07-20T07:59:45;94153.09;;;29.57;61.19
7480;BME280;3781;42.272;22.658;2023-07-20T08:02:13;94161.00;;;29.89;60.83
7480;BME280;3781;42.272;22.658;2023-07-20T08:04:40;94164.53;;;30.10;59.54
7480;BME280;3781;42.272;22.658;2023-07-20T08:07:07;94167.31;;;30.40;58.15
7480;BME280;3781;42.272;22.658;2023-07-20T08:09:34;94159.78;;;30.52;52.79
7480;BME280;3781;42.272;22.658;2023-07-20T08:12:00;94139.41;;;30.71;60.43
7480;BME280;3781;42.272;22.658;2023-07-20T08:14:27;94131.38;;;30.81;57.99
7480;BME280;3781;42.272;22.658;2023-07-20T08:16:54;94112.06;;;30.89;60.31
7480;BME280;3781;42.272;22.658;2023-07-20T08:19:22;94138.28;;;31.17;60.06
7480;BME280;3781;42.272;22.658;2023-07-20T08:21:49;94161.06;;;31.30;53.84
7480;BME280;3781;42.272;22.658;2023-07-20T08:24:16;94152.75;;;31.42;55.08
7480;BME280;3781;42.272;22.658;2023-07-20T08:26:42;94139.31;;;31.37;54.04
7480;BME280;3781;42.272;22.658;2023-07-20T08:29:09;94144.13;;;31.55;53.64
7480;BME280;3781;42.272;22.658;2023-07-20T08:31:36;94148.66;;;31.64;52.96
7480;BME280;3781;42.272;22.658;2023-07-20T08:34:02;94148.91;;;31.68;53.12
7480;BME280;3781;42.272;22.658;2023-07-20T08:36:30;94119.94;;;31.60;54.44
7480;BME280;3781;42.272;22.658;2023-07-20T08:38:57;94150.41;;;31.99;51.82
7480;BME280;3781;42.272;22.658;2023-07-20T08:41:25;94148.19;;;32.06;52.15
7480;BME280;3781;42.272;22.658;2023-07-20T08:43:54;94155.31;;;32.26;49.63
7480;BME280;3781;42.272;22.658;2023-07-20T08:46:24;94155.50;;;32.39;49.64
7480;BME280;3781;42.272;22.658;2023-07-20T08:48:53;94157.59;;;32.52;48.47
7480;BME280;3781;42.272;22.658;2023-07-20T08:51:21;94156.97;;;32.65;49.05
7480;BME280;3781;42.272;22.658;2023-07-20T08:53:51;94155.59;;;32.68;48.98
7480;BME280;3781;42.272;22.658;2023-07-20T08:56:18;94150.44;;;32.71;50.10
7480;BME280;3781;42.272;22.658;2023-07-20T08:58:46;94147.91;;;32.85;50.50
7480;BME280;3781;42.272;22.658;2023-07-20T09:01:14;94163.09;;;33.05;47.32
7480;BME280;3781;42.272;22.658;2023-07-20T09:03:41;94163.88;;;33.10;46.75
7480;BME280;3781;42.272;22.658;2023-07-20T09:06:09;94182.09;;;33.42;45.82
7480;BME280;3781;42.272;22.658;2023-07-20T09:08:38;94174.41;;;33.59;46.25
7480;BME280;3781;42.272;22.658;2023-07-20T09:11:06;94162.59;;;33.97;47.48
7480;BME280;3781;42.272;22.658;2023-07-20T09:13:34;94157.22;;;34.21;46.17
7480;BME280;3781;42.272;22.658;2023-07-20T09:16:00;94148.38;;;34.15;44.60
7480;BME280;3781;42.272;22.658;2023-07-20T09:18:30;94144.63;;;34.54;45.35
7480;BME280;3781;42.272;22.658;2023-07-20T09:21:01;94144.84;;;35.35;42.53
7480;BME280;3781;42.272;22.658;2023-07-20T09:23:32;94152.41;;;35.79;41.72
7480;BME280;3781;42.272;22.658;2023-07-20T09:25:59;94154.31;;;36.06;35.63
7480;BME280;3781;42.272;22.658;2023-07-20T09:28:27;94155.09;;;35.93;37.98
7480;BME280;3781;42.272;22.658;2023-07-20T09:30:55;94110.66;;;35.85;39.93
7480;BME280;3781;42.272;22.658;2023-07-20T09:33:24;94115.97;;;36.26;38.46
7480;BME280;3781;42.272;22.658;2023-07-20T09:35:50;94134.28;;;34.93;38.09
7480;BME280;3781;42.272;22.658;2023-07-20T09:38:17;94129.53;;;34.53;40.28
7480;BME280;3781;42.272;22.658;2023-07-20T09:40:44;94131.47;;;34.29;41.95
7480;BME280;3781;42.272;22.658;2023-07-20T09:43:11;94132.13;;;34.39;43.92
7480;BME280;3781;42.272;22.658;2023-07-20T09:45:42;94125.66;;;34.59;48.58
7480;BME280;3781;42.272;22.658;2023-07-20T09:48:09;94133.75;;;35.23;38.92
7480;BME280;3781;42.272;22.658;2023-07-20T09:50:39;94087.53;;;35.38;37.30
7480;BME280;3781;42.272;22.658;2023-07-20T09:53:09;94118.06;;;35.25;41.81
7480;BME280;3781;42.272;22.658;2023-07-20T09:55:39;94104.69;;;34.69;40.48
7480;BME280;3781;42.272;22.658;2023-07-20T09:58:08;94105.88;;;34.63;39.83
7480;BME280;3781;42.272;22.658;2023-07-20T10:00:36;94115.44;;;34.88;43.93
7480;BME280;3781;42.272;22.658;2023-07-20T10:03:05;94114.44;;;34.84;44.37
7480;BME280;3781;42.272;22.658;2023-07-20T10:05:33;94117.31;;;34.74;41.18
7480;BME280;3781;42.272;22.658;2023-07-20T10:08:02;94093.13;;;35.28;47.68
7480;BME280;3781;42.272;22.658;2023-07-20T10:10:31;94127.63;;;36.13;44.39
7480;BME280;3781;42.272;22.658;2023-07-20T10:13:00;94128.84;;;35.93;41.05
7480;BME280;3781;42.272;22.658;2023-07-20T10:15:30;94125.91;;;36.66;42.99
7480;BME280;3781;42.272;22.658;2023-07-20T10:18:02;94103.03;;;37.25;38.66
7480;BME280;3781;42.272;22.658;2023-07-20T10:20:31;94133.25;;;37.80;37.45
7480;BME280;3781;42.272;22.658;2023-07-20T10:23:00;94142.38;;;37.93;36.25
7480;BME280;3781;42.272;22.658;2023-07-20T10:25:28;94094.09;;;37.25;38.43
7480;BME280;3781;42.272;22.658;2023-07-20T10:27:55;94122.84;;;36.10;40.72
7480;BME280;3781;42.272;22.658;2023-07-20T10:30:24;94112.63;;;36.07;42.41
7480;BME280;3781;42.272;22.658;2023-07-20T10:32:52;94117.06;;;36.03;39.34
7480;BME280;3781;42.272;22.658;2023-07-20T10:35:19;94089.34;;;36.19;42.93
7480;BME280;3781;42.272;22.658;2023-07-20T10:37:49;94096.22;;;35.08;41.19
7480;BME280;3781;42.272;22.658;2023-07-20T10:40:27;94102.66;;;34.80;44.01
7480;BME280;3781;42.272;22.658;2023-07-20T10:43:08;94091.28;;;35.56;46.51
7480;BME280;3781;42.272;22.658;2023-07-20T10:45:40;94098.38;;;36.15;39.15
7480;BME280;3781;42.272;22.658;2023-07-20T10:48:13;94069.81;;;36.58;38.31
7480;BME280;3781;42.272;22.658;2023-07-20T10:50:40;94065.16;;;37.03;37.00
7480;BME280;3781;42.272;22.658;2023-07-20T10:53:22;94061.56;;;37.25;42.84
7480;BME280;3781;42.272;22.658;2023-07-20T10:56:06;94080.09;;;37.79;43.12
7480;BME280;3781;42.272;22.658;2023-07-20T10:58:33;94042.50;;;37.86;43.15
7480;BME280;3781;42.272;22.658;2023-07-20T11:01:01;94078.59;;;38.21;41.28
7480;BME280;3781;42.272;22.658;2023-07-20T11:03:30;94051.63;;;38.07;39.58
7480;BME280;3781;42.272;22.658;2023-07-20T11:05:57;94059.53;;;37.78;42.34
7480;BME280;3781;42.272;22.658;2023-07-20T11:08:42;94058.66;;;38.08;42.44
7480;BME280;3781;42.272;22.658;2023-07-20T11:11:27;94054.78;;;37.92;39.43
7480;BME280;3781;42.272;22.658;2023-07-20T11:13:55;94068.03;;;37.94;40.46
7480;BME280;3781;42.272;22.658;2023-07-20T11:16:37;94042.66;;;37.81;37.95
7480;BME280;3781;42.272;22.658;2023-07-20T11:19:06;94039.19;;;38.23;43.04
7480;BME280;3781;42.272;22.658;2023-07-20T11:21:43;94034.25;;;38.34;39.98
7480;BME280;3781;42.272;22.658;2023-07-20T11:24:11;94048.59;;;37.04;38.16
7480;BME280;3781;42.272;22.658;2023-07-20T11:26:46;94042.69;;;37.02;42.48
7480;BME280;3781;42.272;22.658;2023-07-20T11:29:14;94028.56;;;37.14;44.68
7480;BME280;3781;42.272;22.658;2023-07-20T11:31:42;94049.47;;;37.70;35.48
7480;BME280;3781;42.272;22.658;2023-07-20T11:34:11;94038.72;;;38.30;46.48
7480;BME280;3781;42.272;22.658;2023-07-20T11:36:39;94027.97;;;38.68;47.07
7480;BME280;3781;42.272;22.658;2023-07-20T11:39:07;94029.94;;;39.13;39.78
7480;BME280;3781;42.272;22.658;2023-07-20T11:41:36;94029.19;;;39.42;39.35
7480;BME280;3781;42.272;22.658;2023-07-20T11:44:04;94024.81;;;39.58;40.95
7480;BME280;3781;42.272;22.658;2023-07-20T11:46:32;94026.03;;;39.69;39.28
7480;BME280;3781;42.272;22.658;2023-07-20T11:48:59;94024.69;;;39.17;36.41
7480;BME280;3781;42.272;22.658;2023-07-20T11:51:27;94008.09;;;39.39;38.98
7480;BME280;3781;42.272;22.658;2023-07-20T11:53:55;94016.06;;;39.44;39.19
7480;BME280;3781;42.272;22.658;2023-07-20T11:56:23;93986.41;;;39.60;39.30
7480;BME280;3781;42.272;22.658;2023-07-20T11:58:54;93975.63;;;39.92;37.52
7480;BME280;3781;42.272;22.658;2023-07-20T12:01:23;94018.63;;;40.20;32.26
7480;BME280;3781;42.272;22.658;2023-07-20T12:03:50;94014.34;;;40.19;38.22
7480;BME280;3781;42.272;22.658;2023-07-20T12:06:17;94007.72;;;40.40;39.29
7480;BME280;3781;42.272;22.658;2023-07-20T12:08:43;94005.22;;;40.68;35.76
7480;BME280;3781;42.272;22.658;2023-07-20T12:11:10;94001.63;;;40.76;36.64
7480;BME280;3781;42.272;22.658;2023-07-20T12:13:38;94002.59;;;40.92;34.91
7480;BME280;3781;42.272;22.658;2023-07-20T12:16:10;93993.72;;;40.83;35.60
7480;BME280;3781;42.272;22.658;2023-07-20T12:18:38;93999.22;;;40.95;36.08
7480;BME280;3781;42.272;22.658;2023-07-20T12:21:06;93987.97;;;40.31;35.46
7480;BME280;3781;42.272;22.658;2023-07-20T12:23:37;93989.13;;;39.80;33.44
7480;BME280;3781;42.272;22.658;2023-07-20T12:26:06;93967.13;;;39.44;37.79
7480;BME280;3781;42.272;22.658;2023-07-20T12:28:38;93991.19;;;40.13;34.32
7480;BME280;3781;42.272;22.658;2023-07-20T12:31:06;93960.91;;;40.14;31.81
7480;BME280;3781;42.272;22.658;2023-07-20T12:33:37;93947.03;;;40.40;33.90
7480;BME280;3781;42.272;22.658;2023-07-20T12:36:05;93947.41;;;40.83;35.04
7480;BME280;3781;42.272;22.658;2023-07-20T12:38:31;93962.19;;;41.55;32.60
7480;BME280;3781;42.272;22.658;2023-07-20T12:41:00;93977.00;;;42.05;37.23
7480;BME280;3781;42.272;22.658;2023-07-20T12:43:27;93978.59;;;42.46;34.28
7480;BME280;3781;42.272;22.658;2023-07-20T12:45:54;93954.59;;;42.67;33.85
7480;BME280;3781;42.272;22.658;2023-07-20T12:48:21;93970.34;;;42.86;34.30
7480;BME280;3781;42.272;22.658;2023-07-20T12:50:50;93968.50;;;43.06;32.06
7480;BME280;3781;42.272;22.658;2023-07-20T12:53:17;93966.28;;;43.27;35.20
7480;BME280;3781;42.272;22.658;2023-07-20T12:55:53;93961.78;;;43.19;32.10
7480;BME280;3781;42.272;22.658;2023-07-20T12:58:23;93956.53;;;43.61;32.79
7480;BME280;3781;42.272;22.658;2023-07-20T13:00:50;93954.34;;;41.77;30.35
7480;BME280;3781;42.272;22.658;2023-07-20T13:03:20;93939.94;;;39.73;32.35
7480;BME280;3781;42.272;22.658;2023-07-20T13:05:52;93873.81;;;39.11;35.29
7480;BME280;3781;42.272;22.658;2023-07-20T13:08:18;93952.47;;;40.40;33.49
7480;BME280;3781;42.272;22.658;2023-07-20T13:10:45;93945.41;;;41.16;29.01
7480;BME280;3781;42.272;22.658;2023-07-20T13:13:12;93942.03;;;41.95;35.00
7480;BME280;3781;42.272;22.658;2023-07-20T13:15:44;93935.03;;;42.81;34.91
7480;BME280;3781;42.272;22.658;2023-07-20T13:18:14;93939.78;;;43.46;32.62
7480;BME280;3781;42.272;22.658;2023-07-20T13:20:47;93951.09;;;43.14;29.64